createdAt,value
2023-03-20T00:00:28.759Z,2.75
2023-03-20T00:02:57.303Z,4.30
2023-03-20T00:05:25.954Z,3.88
2023-03-20T00:07:55.221Z,3.78
2023-03-20T00:10:23.573Z,2.50
2023-03-20T00:12:51.927Z,3.72
2023-03-20T00:15:32.076Z,2.42
2023-03-20T00:18:00.796Z,1.30
2023-03-20T00:20:31.538Z,1.80
2023-03-20T00:23:00.055Z,3.55
2023-03-20T00:25:28.428Z,1.73
2023-03-20T00:27:56.734Z,3.25
2023-03-20T00:30:28.443Z,1.77
2023-03-20T00:32:59.054Z,2.58
2023-03-20T00:35:29.416Z,2.17
2023-03-20T00:37:58.188Z,2.60
2023-03-20T00:40:30.439Z,3.42
2023-03-20T00:43:01.981Z,1.70
2023-03-20T00:45:30.702Z,3.33
2023-03-20T00:48:00.623Z,3.83
2023-03-20T00:50:30.490Z,3.38
2023-03-20T00:52:59.260Z,2.60
2023-03-20T00:55:28.844Z,1.55
2023-03-20T00:57:58.069Z,1.45
2023-03-20T01:00:30.418Z,2.78
2023-03-20T01:03:00.678Z,5.03
2023-03-20T01:05:29.514Z,4.75
2023-03-20T01:07:57.791Z,3.25
2023-03-20T01:10:27.712Z,3.22
2023-03-20T01:12:56.362Z,3.28
2023-03-20T01:15:26.460Z,2.42
2023-03-20T01:17:54.755Z,2.80
2023-03-20T01:20:25.597Z,4.25
2023-03-20T01:22:54.427Z,2.35
2023-03-20T01:25:22.716Z,5.88
2023-03-20T01:27:51.947Z,8.15
2023-03-20T01:30:22.808Z,5.50
2023-03-20T01:32:51.396Z,5.25
2023-03-20T01:35:21.171Z,3.90
2023-03-20T01:37:51.023Z,2.55
2023-03-20T01:40:29.280Z,3.10
2023-03-20T01:42:57.644Z,3.95
2023-03-20T01:45:27.833Z,3.13
2023-03-20T01:47:56.164Z,1.65
2023-03-20T01:50:27.285Z,4.13
2023-03-20T01:53:08.032Z,5.75
2023-03-20T01:55:36.833Z,2.55
2023-03-20T01:58:07.473Z,3.88
2023-03-20T02:00:36.574Z,2.85
2023-03-20T02:03:06.136Z,4.68
2023-03-20T02:05:34.683Z,4.07
2023-03-20T02:08:13.004Z,4.65
2023-03-20T02:10:41.302Z,3.53
2023-03-20T02:13:10.887Z,3.95
2023-03-20T02:15:56.715Z,3.53
2023-03-20T02:18:25.199Z,1.42
2023-03-20T02:21:18.368Z,3.72
2023-03-20T02:24:14.816Z,3.33
2023-03-20T02:26:51.495Z,3.20
2023-03-20T02:29:59.505Z,11.98
2023-03-20T02:33:12.276Z,3.20
2023-03-20T02:36:08.616Z,2.83
2023-03-20T02:38:47.519Z,3.40
2023-03-20T02:41:19.027Z,2.53
2023-03-20T02:43:49.663Z,3.75
2023-03-20T02:46:23.367Z,4.00
2023-03-20T02:48:55.598Z,4.25
2023-03-20T02:51:25.847Z,2.83
2023-03-20T02:53:56.754Z,2.20
2023-03-20T02:56:29.186Z,2.60
2023-03-20T02:59:00.965Z,1.92
2023-03-20T03:01:31.566Z,4.22
2023-03-20T03:04:02.093Z,4.53
2023-03-20T03:06:31.621Z,5.07
2023-03-20T03:09:02.809Z,3.78
2023-03-20T03:11:31.861Z,6.75
2023-03-20T03:14:00.295Z,4.38
2023-03-20T03:16:30.292Z,3.00
2023-03-20T03:19:03.747Z,2.25
2023-03-20T03:21:32.312Z,4.47
2023-03-20T03:24:02.662Z,1.88
2023-03-20T03:26:34.576Z,3.80
2023-03-20T03:29:04.422Z,4.60
2023-03-20T03:31:32.919Z,3.35
2023-03-20T03:34:01.496Z,1.85
2023-03-20T03:36:39.353Z,2.75
2023-03-20T03:39:13.333Z,4.72
2023-03-20T03:41:42.352Z,2.40
2023-03-20T03:44:13.679Z,2.08
2023-03-20T03:46:44.756Z,2.40
2023-03-20T03:49:16.551Z,3.67
2023-03-20T03:51:45.528Z,3.20
2023-03-20T03:54:16.849Z,2.65
2023-03-20T03:56:45.736Z,3.47
2023-03-20T03:59:16.619Z,1.88
2023-03-20T04:01:45.027Z,2.97
2023-03-20T04:04:14.543Z,4.28
2023-03-20T04:06:43.355Z,2.22
2023-03-20T04:09:11.665Z,3.88
2023-03-20T04:11:41.392Z,3.65
2023-03-20T04:14:09.743Z,2.45
2023-03-20T04:16:38.119Z,3.10
2023-03-20T04:19:06.444Z,3.78
2023-03-20T04:21:34.832Z,2.72
2023-03-20T04:24:03.123Z,5.43
2023-03-20T04:26:31.915Z,5.18
2023-03-20T04:29:01.685Z,4.95
2023-03-20T04:31:30.474Z,4.10
2023-03-20T04:33:58.770Z,2.28
2023-03-20T04:36:27.107Z,3.60
2023-03-20T04:38:57.592Z,5.47
2023-03-20T04:41:26.488Z,2.60
2023-03-20T04:43:54.776Z,4.50
2023-03-20T04:46:24.512Z,2.55
2023-03-20T04:48:52.897Z,4.10
2023-03-20T04:51:21.281Z,5.05
2023-03-20T04:53:49.655Z,5.13
2023-03-20T04:56:18.001Z,2.47
2023-03-20T04:58:46.442Z,3.38
2023-03-20T05:01:14.833Z,5.40
2023-03-20T05:03:44.646Z,3.00
2023-03-20T05:06:12.979Z,2.67
2023-03-20T05:08:41.535Z,2.97
2023-03-20T05:11:09.878Z,3.35
2023-03-20T05:13:38.182Z,2.05
2023-03-20T05:16:07.363Z,3.20
2023-03-20T05:18:35.678Z,2.33
2023-03-20T05:21:05.857Z,4.60
2023-03-20T05:23:34.155Z,4.88
2023-03-20T05:26:02.520Z,5.88
2023-03-20T05:28:30.940Z,7.85
2023-03-20T05:30:59.266Z,3.03
2023-03-20T05:33:27.635Z,3.05
2023-03-20T05:35:56.020Z,2.65
2023-03-20T05:38:26.683Z,7.40
2023-03-20T05:40:58.380Z,3.00
2023-03-20T05:43:26.993Z,3.72
2023-03-20T05:45:55.566Z,4.15
2023-03-20T05:48:23.970Z,4.45
2023-03-20T05:50:52.316Z,11.00
2023-03-20T05:53:20.693Z,2.45
2023-03-20T05:55:50.416Z,3.45
2023-03-20T05:58:18.847Z,3.25
2023-03-20T06:00:47.179Z,2.45
2023-03-20T06:03:15.521Z,3.47
2023-03-20T06:05:44.916Z,1.95
2023-03-20T06:08:13.198Z,3.13
2023-03-20T06:10:41.588Z,6.95
2023-03-20T06:13:11.419Z,7.18
2023-03-20T06:15:39.959Z,16.45
2023-03-20T06:18:08.444Z,4.00
2023-03-20T06:20:36.752Z,6.07
2023-03-20T06:23:05.187Z,6.20
2023-03-20T06:25:33.645Z,4.25
2023-03-20T06:28:02.310Z,3.25
2023-03-20T06:30:32.021Z,4.68
2023-03-20T06:33:00.391Z,7.53
2023-03-20T06:35:31.210Z,6.90
2023-03-20T06:37:59.582Z,8.13
2023-03-20T06:40:28.367Z,4.63
2023-03-20T06:42:56.730Z,2.47
2023-03-20T06:45:25.020Z,8.50
2023-03-20T06:47:54.740Z,4.88
2023-03-20T06:50:23.188Z,4.50
2023-03-20T06:52:52.264Z,5.47
2023-03-20T06:55:20.795Z,8.48
2023-03-20T06:57:49.124Z,2.58
2023-03-20T07:00:19.065Z,6.35
2023-03-20T07:02:47.482Z,4.40
2023-03-20T07:05:17.554Z,4.90
2023-03-20T07:07:46.016Z,2.95
2023-03-20T07:10:14.324Z,6.22
2023-03-20T07:12:43.965Z,8.02
2023-03-20T07:15:12.614Z,10.05
2023-03-20T07:17:41.003Z,19.02
2023-03-20T07:20:10.550Z,12.15
2023-03-20T07:22:41.437Z,20.45
2023-03-20T07:25:10.758Z,21.50
2023-03-20T07:27:39.172Z,19.60
2023-03-20T07:30:08.804Z,12.68
2023-03-20T07:32:37.939Z,15.57
2023-03-20T07:35:07.312Z,8.15
2023-03-20T07:37:35.632Z,8.93
2023-03-20T07:40:06.048Z,8.02
2023-03-20T07:42:34.412Z,12.18
2023-03-20T07:45:02.716Z,11.55
2023-03-20T07:47:31.222Z,8.70
2023-03-20T07:49:59.607Z,8.85
2023-03-20T07:52:27.952Z,8.18
2023-03-20T07:54:56.302Z,10.25
2023-03-20T07:57:26.069Z,6.93
2023-03-20T07:59:54.610Z,10.35
2023-03-20T08:02:22.903Z,7.82
2023-03-20T08:04:51.312Z,6.68
2023-03-20T08:07:19.770Z,5.55
2023-03-20T08:09:48.257Z,7.80
2023-03-20T08:12:16.744Z,8.63
2023-03-20T08:14:46.529Z,6.72
2023-03-20T08:17:18.012Z,7.05
2023-03-20T08:19:47.827Z,4.93
2023-03-20T08:22:16.362Z,15.00
2023-03-20T08:24:44.737Z,6.82
2023-03-20T08:27:13.035Z,6.05
2023-03-20T08:29:41.407Z,9.07
2023-03-20T08:32:11.152Z,4.00
2023-03-20T08:34:39.530Z,11.77
2023-03-20T08:37:08.035Z,5.90
2023-03-20T08:39:36.641Z,5.93
2023-03-20T08:42:05.252Z,6.25
2023-03-20T08:44:33.568Z,5.13
2023-03-20T08:47:02.238Z,3.97
2023-03-20T08:49:31.929Z,6.55
2023-03-20T08:52:00.880Z,4.90
2023-03-20T08:54:29.414Z,4.45
2023-03-20T08:56:57.781Z,5.10
2023-03-20T08:59:26.107Z,4.82
2023-03-20T09:01:54.527Z,7.20
2023-03-20T09:04:22.846Z,3.65
2023-03-20T09:06:52.672Z,6.35
2023-03-20T09:09:26.381Z,4.65
2023-03-20T09:11:55.102Z,5.55
2023-03-20T09:14:23.597Z,4.38
2023-03-20T09:16:51.952Z,4.03
2023-03-20T09:19:20.591Z,5.63
2023-03-20T09:21:48.936Z,4.82
2023-03-20T09:24:18.626Z,6.70
2023-03-20T09:26:46.972Z,6.07
2023-03-20T09:29:15.421Z,4.75
2023-03-20T09:31:43.817Z,3.35
2023-03-20T09:34:12.262Z,6.10
2023-03-20T09:36:40.786Z,6.10
2023-03-20T09:39:09.162Z,8.07
2023-03-20T09:41:53.195Z,3.53
2023-03-20T09:44:34.195Z,3.88
2023-03-20T09:47:19.395Z,6.78
2023-03-20T09:49:54.349Z,6.15
2023-03-20T09:52:25.292Z,8.15
2023-03-20T09:54:55.643Z,4.68
2023-03-20T09:57:26.998Z,4.93
2023-03-20T09:59:57.670Z,6.38
2023-03-20T10:02:32.435Z,5.95
2023-03-20T10:05:00.820Z,4.00
2023-03-20T10:07:29.184Z,5.70
2023-03-20T10:09:57.544Z,4.63
2023-03-20T10:12:33.688Z,5.65
2023-03-20T10:15:04.189Z,6.05
2023-03-20T10:17:40.887Z,4.40
2023-03-20T10:20:13.929Z,2.92
2023-03-20T10:22:44.144Z,6.85
2023-03-20T10:25:21.137Z,4.90
2023-03-20T10:27:51.719Z,6.00
2023-03-20T10:30:38.430Z,5.57
2023-03-20T10:33:18.823Z,3.77
2023-03-20T10:35:49.473Z,3.67
2023-03-20T10:38:25.757Z,4.03
2023-03-20T10:40:54.313Z,4.83
2023-03-20T10:43:25.907Z,4.35
2023-03-20T10:45:55.102Z,5.80
2023-03-20T10:48:26.100Z,6.15
2023-03-20T10:50:56.533Z,6.15
2023-03-20T10:53:31.695Z,3.15
2023-03-20T10:56:01.969Z,6.07
2023-03-20T10:58:32.994Z,5.22
2023-03-20T11:01:02.781Z,6.20
2023-03-20T11:03:32.920Z,8.75
2023-03-20T11:06:09.689Z,5.95
2023-03-20T11:08:40.494Z,2.40
2023-03-20T11:11:08.917Z,7.32
2023-03-20T11:13:40.146Z,5.90
2023-03-20T11:16:22.851Z,3.25
2023-03-20T11:18:52.293Z,4.05
2023-03-20T11:21:22.350Z,5.88
2023-03-20T11:23:50.940Z,7.10
2023-03-20T11:26:20.056Z,3.97
2023-03-20T11:28:54.392Z,2.47
2023-03-20T11:31:26.994Z,6.10
2023-03-20T11:34:08.920Z,4.70
2023-03-20T11:36:39.465Z,2.42
2023-03-20T11:39:11.743Z,4.25
2023-03-20T11:41:46.414Z,7.05
2023-03-20T11:44:24.339Z,4.35
2023-03-20T11:46:59.129Z,4.13
2023-03-20T11:49:29.223Z,9.45
2023-03-20T11:51:58.652Z,5.05
2023-03-20T11:54:27.089Z,4.32
2023-03-20T11:56:56.388Z,3.65
2023-03-20T11:59:27.202Z,5.35
2023-03-20T12:01:56.128Z,3.83
2023-03-20T12:04:28.339Z,3.83
2023-03-20T12:06:58.327Z,3.58
2023-03-20T12:09:41.311Z,6.13
2023-03-20T12:12:16.456Z,3.60
2023-03-20T12:14:48.941Z,5.47
2023-03-20T12:17:42.360Z,4.45
2023-03-20T12:20:20.763Z,4.65
2023-03-20T12:22:52.449Z,5.07
2023-03-20T12:25:23.201Z,3.40
2023-03-20T12:27:56.982Z,5.25
2023-03-20T12:30:31.824Z,7.35
2023-03-20T12:33:02.520Z,2.67
2023-03-20T12:35:31.997Z,2.45
2023-03-20T12:38:00.833Z,2.97
2023-03-20T12:40:33.962Z,5.53
2023-03-20T12:43:05.115Z,2.55
2023-03-20T12:45:39.492Z,4.28
2023-03-20T12:48:16.883Z,2.80
2023-03-20T12:50:46.224Z,3.88
2023-03-20T12:53:30.968Z,1.90
2023-03-20T12:56:04.830Z,4.10
2023-03-20T12:58:39.068Z,4.72
2023-03-20T13:01:10.600Z,1.95
2023-03-20T13:04:03.004Z,1.60
2023-03-20T13:06:37.722Z,1.90
2023-03-20T13:09:23.083Z,1.77
2023-03-20T13:11:52.888Z,3.20
2023-03-20T13:14:23.243Z,2.28
2023-03-20T13:16:56.117Z,2.08
2023-03-20T13:19:28.281Z,1.73
2023-03-20T13:21:59.652Z,1.95
2023-03-20T13:24:33.541Z,1.60
2023-03-20T13:27:05.990Z,2.55
2023-03-20T13:29:38.943Z,2.53
2023-03-20T13:32:14.662Z,2.50
2023-03-20T13:34:54.866Z,1.92
2023-03-20T13:37:24.803Z,1.83
2023-03-20T13:40:05.825Z,2.17
2023-03-20T13:42:36.494Z,3.42
2023-03-20T13:45:07.159Z,2.33
2023-03-20T13:47:37.144Z,1.58
2023-03-20T13:50:19.307Z,1.88
2023-03-20T13:52:50.312Z,1.73
2023-03-20T13:55:21.363Z,1.42
2023-03-20T13:57:57.118Z,1.95
2023-03-20T14:00:28.314Z,1.13
2023-03-20T14:03:14.062Z,1.40
2023-03-20T14:05:43.227Z,2.08
2023-03-20T14:08:41.741Z,3.40
2023-03-20T14:11:32.450Z,2.05
2023-03-20T14:14:13.683Z,1.88
2023-03-20T14:16:42.039Z,2.97
2023-03-20T14:19:18.308Z,1.50
2023-03-20T14:21:47.117Z,2.83
2023-03-20T14:24:16.089Z,3.33
2023-03-20T14:26:44.384Z,2.38
2023-03-20T14:29:32.513Z,2.03
2023-03-20T14:32:23.358Z,3.63
2023-03-20T14:34:54.060Z,1.77
2023-03-20T14:37:30.754Z,3.63
2023-03-20T14:40:02.636Z,4.65
2023-03-20T14:42:38.368Z,3.72
2023-03-20T14:45:29.101Z,2.50
2023-03-20T14:48:01.781Z,2.13
2023-03-20T14:50:33.018Z,3.70
2023-03-20T14:53:06.410Z,1.73
2023-03-20T14:55:37.314Z,2.00
2023-03-20T14:58:06.739Z,4.05
2023-03-20T15:00:36.978Z,1.30
2023-03-20T15:03:09.473Z,2.97
2023-03-20T15:05:40.080Z,1.70
2023-03-20T15:08:09.529Z,1.25
2023-03-20T15:10:39.324Z,1.77
2023-03-20T15:13:08.432Z,2.03
2023-03-20T15:15:36.729Z,1.95
2023-03-20T15:18:06.226Z,3.00
2023-03-20T15:20:37.344Z,1.52
2023-03-20T15:23:07.165Z,1.40
2023-03-20T15:25:37.563Z,2.08
2023-03-20T15:28:06.785Z,1.73
2023-03-20T15:30:37.522Z,2.25
2023-03-20T15:33:06.090Z,2.90
2023-03-20T15:35:34.632Z,1.65
2023-03-20T15:38:07.568Z,3.35
2023-03-20T15:40:50.072Z,2.30
2023-03-20T15:43:21.931Z,2.70
2023-03-20T15:45:50.877Z,2.88
2023-03-20T15:48:20.410Z,2.10
2023-03-20T15:50:51.672Z,3.22
2023-03-20T15:53:24.720Z,2.78
2023-03-20T15:56:01.802Z,2.88
2023-03-20T15:58:36.030Z,3.97
2023-03-20T16:01:04.864Z,2.13
2023-03-20T16:03:33.403Z,2.00
2023-03-20T16:06:02.067Z,2.92
2023-03-20T16:08:32.959Z,2.92
2023-03-20T16:11:03.280Z,3.72
2023-03-20T16:13:35.439Z,3.60
2023-03-20T16:16:05.782Z,11.40
2023-03-20T16:18:37.059Z,12.75
2023-03-20T16:21:07.668Z,15.30
2023-03-20T16:23:39.457Z,10.32
2023-03-20T16:26:09.112Z,6.93
2023-03-20T16:28:37.717Z,10.73
2023-03-20T16:31:09.845Z,8.00
2023-03-20T16:33:38.512Z,5.90
2023-03-20T16:36:07.488Z,6.32
2023-03-20T16:38:37.624Z,10.93
2023-03-20T16:41:16.372Z,5.32
2023-03-20T16:43:47.502Z,4.88
2023-03-20T16:46:18.690Z,9.25
2023-03-20T16:48:47.080Z,6.00
2023-03-20T16:51:18.212Z,4.30
2023-03-20T16:53:48.786Z,6.53
2023-03-20T16:56:18.460Z,5.40
2023-03-20T16:58:46.862Z,7.88
2023-03-20T17:01:19.680Z,4.70
2023-03-20T17:03:50.532Z,6.53
2023-03-20T17:06:39.183Z,4.80
2023-03-20T17:09:18.746Z,6.00
2023-03-20T17:11:48.714Z,5.47
2023-03-20T17:14:17.122Z,4.43
2023-03-20T17:16:45.466Z,6.55
2023-03-20T17:19:15.746Z,6.25
2023-03-20T17:21:44.552Z,4.03
2023-03-20T17:24:13.136Z,5.03
2023-03-20T17:26:45.281Z,5.80
2023-03-20T17:29:13.958Z,6.88
2023-03-20T17:31:42.298Z,4.78
2023-03-20T17:34:11.667Z,2.47
2023-03-20T17:36:40.008Z,3.33
2023-03-20T17:39:08.441Z,5.53
2023-03-20T17:41:36.749Z,6.43
2023-03-20T17:44:06.665Z,2.65
2023-03-20T17:46:49.768Z,3.08
2023-03-20T17:49:26.968Z,3.35
2023-03-20T17:51:55.393Z,3.97
2023-03-20T17:54:23.730Z,5.45
2023-03-20T17:56:52.045Z,3.72
2023-03-20T17:59:21.778Z,3.13
2023-03-20T18:01:50.385Z,2.17
2023-03-20T18:04:19.747Z,2.25
2023-03-20T18:06:49.161Z,4.13
2023-03-20T18:09:17.796Z,4.00
2023-03-20T18:11:46.212Z,3.47
2023-03-20T18:14:17.879Z,4.53
2023-03-20T18:16:47.726Z,3.85
2023-03-20T18:19:22.288Z,3.85
2023-03-20T18:21:50.600Z,4.18
2023-03-20T18:24:19.056Z,2.72
2023-03-20T18:26:47.522Z,2.42
2023-03-20T18:29:15.904Z,1.40
2023-03-20T18:31:44.281Z,1.95
2023-03-20T18:34:13.966Z,4.65
2023-03-20T18:36:44.339Z,1.63
2023-03-20T18:39:16.693Z,3.17
2023-03-20T18:41:45.506Z,4.05
2023-03-20T18:44:13.861Z,2.55
2023-03-20T18:46:42.670Z,1.73
2023-03-20T18:49:15.635Z,4.88
2023-03-20T18:51:43.987Z,2.15
2023-03-20T18:54:12.303Z,1.88
2023-03-20T18:56:41.044Z,2.65
2023-03-20T18:59:10.586Z,2.78
2023-03-20T19:01:38.971Z,1.67
2023-03-20T19:04:07.393Z,4.18
2023-03-20T19:06:37.091Z,4.28
2023-03-20T19:09:05.876Z,2.75
2023-03-20T19:11:34.206Z,3.70
2023-03-20T19:14:02.536Z,1.45
2023-03-20T19:16:31.966Z,1.50
2023-03-20T19:19:01.452Z,1.23
2023-03-20T19:21:33.535Z,2.20
2023-03-20T19:24:06.438Z,2.65
2023-03-20T19:26:35.830Z,1.75
2023-03-20T19:29:08.322Z,1.33
2023-03-20T19:31:37.345Z,2.38
2023-03-20T19:34:06.780Z,1.20
2023-03-20T19:36:36.258Z,1.58
2023-03-20T19:39:07.256Z,1.10
2023-03-20T19:41:35.631Z,0.98
2023-03-20T19:44:04.036Z,1.10
2023-03-20T19:46:42.411Z,0.85
2023-03-20T19:49:18.590Z,0.80
2023-03-20T19:51:47.849Z,1.10
2023-03-20T19:54:17.593Z,1.60
2023-03-20T19:56:46.062Z,0.73
2023-03-20T19:59:16.766Z,1.17
2023-03-20T20:01:46.781Z,1.38
2023-03-20T20:04:15.383Z,1.00
2023-03-20T20:06:43.752Z,1.05
2023-03-20T20:09:12.044Z,1.00
2023-03-20T20:11:42.473Z,1.10
2023-03-20T20:14:14.654Z,1.52
2023-03-20T20:16:43.877Z,0.85
2023-03-20T20:19:12.369Z,3.00
2023-03-20T20:24:29.063Z,1.58
2023-03-20T20:29:48.969Z,1.02
2023-03-20T20:32:17.455Z,1.10
2023-03-20T20:35:35.025Z,1.27
2023-03-20T20:40:27.389Z,1.27
2023-03-20T20:43:01.337Z,1.15
2023-03-20T20:45:31.678Z,1.27
2023-03-20T20:48:00.440Z,1.63
2023-03-20T20:50:29.857Z,1.98
2023-03-20T20:52:59.032Z,1.63
2023-03-20T20:55:27.609Z,2.65
2023-03-20T20:57:57.709Z,1.90
2023-03-20T21:00:41.192Z,3.05
2023-03-20T21:03:16.380Z,1.92
2023-03-20T21:05:44.840Z,2.13
2023-03-20T21:08:14.138Z,1.88
2023-03-20T21:10:42.866Z,2.00
2023-03-20T21:13:12.551Z,1.70
2023-03-20T21:15:45.180Z,1.70
2023-03-20T21:18:13.567Z,3.03
2023-03-20T21:20:42.234Z,1.67
2023-03-20T21:23:11.259Z,1.90
2023-03-20T21:25:41.835Z,2.03
2023-03-20T21:28:13.181Z,2.17
2023-03-20T21:30:54.599Z,3.17
2023-03-20T21:33:39.816Z,2.65
2023-03-20T21:36:08.374Z,2.05
2023-03-20T21:41:25.067Z,1.48
2023-03-20T21:43:54.726Z,5.97
2023-03-20T21:47:00.002Z,3.20
2023-03-20T21:55:55.289Z,2.83
2023-03-20T21:58:22.745Z,2.10
2023-03-20T22:03:35.125Z,1.90
2023-03-20T22:12:40.659Z,4.28
2023-03-20T22:17:56.019Z,2.13
2023-03-20T22:23:52.010Z,6.70
2023-03-20T22:32:20.796Z,3.90
2023-03-20T22:35:12.936Z,4.18
2023-03-20T22:38:02.360Z,2.20
2023-03-20T22:43:50.904Z,3.67
2023-03-20T22:45:52.752Z,1.90
2023-03-20T22:48:30.293Z,2.28
2023-03-20T22:51:00.048Z,2.00
2023-03-20T22:53:28.488Z,2.17
2023-03-20T22:55:56.773Z,2.08
2023-03-20T22:58:25.281Z,2.97
2023-03-20T23:00:54.985Z,2.13
2023-03-20T23:03:39.922Z,2.13
2023-03-20T23:06:12.160Z,3.70
2023-03-20T23:08:49.157Z,2.70
2023-03-20T23:11:20.639Z,2.53
2023-03-20T23:13:49.117Z,2.65
2023-03-20T23:16:17.506Z,1.80
2023-03-20T23:18:45.915Z,1.50
2023-03-20T23:21:17.244Z,1.40
2023-03-20T23:23:47.094Z,1.98
2023-03-20T23:26:16.126Z,1.40
2023-03-20T23:28:45.706Z,1.70
2023-03-20T23:31:16.470Z,2.25
2023-03-20T23:33:45.461Z,1.98
2023-03-20T23:36:32.536Z,2.03
2023-03-20T23:39:03.545Z,2.63
2023-03-20T23:42:01.611Z,1.50
2023-03-20T23:44:20.302Z,4.68
2023-03-20T23:46:48.699Z,1.80
2023-03-20T23:49:17.416Z,1.95
2023-03-20T23:51:47.152Z,2.65
2023-03-20T23:54:18.172Z,2.30
2023-03-20T23:56:46.499Z,1.75
2023-03-20T23:59:21.404Z,2.08
